sensor_id;sensor_type;location;lat;lon;timestamp;P1;durP1;ratioP1;P2;durP2;ratioP2
40489;SDS011;26196;52.302;10.572;2022-07-18T00:03:02;4.80;;;0.88;;
40489;SDS011;26196;52.302;10.572;2022-07-18T00:07:03;3.13;;;1.20;;
40489;SDS011;26196;52.302;10.572;2022-07-18T00:11:03;4.40;;;1.20;;
40489;SDS011;26196;52.302;10.572;2022-07-18T00:15:04;1.73;;;0.55;;
40489;SDS011;26196;52.302;10.572;2022-07-18T00:19:06;3.42;;;1.08;;
40489;SDS011;26196;52.302;10.572;2022-07-18T00:23:07;3.20;;;0.70;;
40489;SDS011;26196;52.302;10.572;2022-07-18T00:27:07;1.35;;;0.80;;
40489;SDS011;26196;52.302;10.572;2022-07-18T00:31:08;2.33;;;0.93;;
40489;SDS011;26196;52.302;10.572;2022-07-18T00:35:08;1.35;;;0.82;;
40489;SDS011;26196;52.302;10.572;2022-07-18T00:39:10;2.70;;;0.90;;
40489;SDS011;26196;52.302;10.572;2022-07-18T00:43:14;4.53;;;1.00;;
40489;SDS011;26196;52.302;10.572;2022-07-18T00:47:14;3.30;;;0.98;;
40489;SDS011;26196;52.302;10.572;2022-07-18T00:51:15;2.22;;;0.80;;
40489;SDS011;26196;52.302;10.572;2022-07-18T00:55:16;1.15;;;0.60;;
40489;SDS011;26196;52.302;10.572;2022-07-18T00:59:17;1.25;;;0.82;;
40489;SDS011;26196;52.302;10.572;2022-07-18T01:03:18;3.28;;;1.02;;
40489;SDS011;26196;52.302;10.572;2022-07-18T01:07:19;3.30;;;0.85;;
40489;SDS011;26196;52.302;10.572;2022-07-18T01:11:20;1.23;;;0.70;;
40489;SDS011;26196;52.302;10.572;2022-07-18T01:15:21;2.22;;;0.90;;
40489;SDS011;26196;52.302;10.572;2022-07-18T01:19:21;2.17;;;0.60;;
40489;SDS011;26196;52.302;10.572;2022-07-18T01:23:22;1.42;;;0.75;;
40489;SDS011;26196;52.302;10.572;2022-07-18T01:27:23;1.63;;;0.73;;
40489;SDS011;26196;52.302;10.572;2022-07-18T01:31:24;1.85;;;0.82;;
40489;SDS011;26196;52.302;10.572;2022-07-18T01:35:24;1.52;;;0.70;;
40489;SDS011;26196;52.302;10.572;2022-07-18T01:39:26;2.97;;;1.08;;
40489;SDS011;26196;52.302;10.572;2022-07-18T01:43:27;1.65;;;0.60;;
40489;SDS011;26196;52.302;10.572;2022-07-18T01:47:28;1.75;;;0.70;;
40489;SDS011;26196;52.302;10.572;2022-07-18T01:51:28;1.10;;;0.70;;
40489;SDS011;26196;52.302;10.572;2022-07-18T01:55:29;2.15;;;0.70;;
40489;SDS011;26196;52.302;10.572;2022-07-18T01:59:29;2.70;;;0.88;;
40489;SDS011;26196;52.302;10.572;2022-07-18T02:03:30;1.52;;;0.65;;
40489;SDS011;26196;52.302;10.572;2022-07-18T02:07:34;4.43;;;1.45;;
40489;SDS011;26196;52.302;10.572;2022-07-18T02:11:36;2.80;;;0.80;;
40489;SDS011;26196;52.302;10.572;2022-07-18T02:15:37;2.70;;;0.60;;
40489;SDS011;26196;52.302;10.572;2022-07-18T02:19:38;2.10;;;0.70;;
40489;SDS011;26196;52.302;10.572;2022-07-18T02:23:38;1.35;;;0.60;;
40489;SDS011;26196;52.302;10.572;2022-07-18T02:27:39;1.90;;;0.68;;
40489;SDS011;26196;52.302;10.572;2022-07-18T02:31:40;0.95;;;0.50;;
40489;SDS011;26196;52.302;10.572;2022-07-18T02:35:41;1.75;;;0.80;;
40489;SDS011;26196;52.302;10.572;2022-07-18T02:39:42;3.33;;;1.20;;
40489;SDS011;26196;52.302;10.572;2022-07-18T02:43:42;1.42;;;0.60;;
40489;SDS011;26196;52.302;10.572;2022-07-18T02:47:43;2.10;;;0.70;;
40489;SDS011;26196;52.302;10.572;2022-07-18T02:51:43;1.77;;;0.80;;
40489;SDS011;26196;52.302;10.572;2022-07-18T02:55:43;0.80;;;0.45;;
40489;SDS011;26196;52.302;10.572;2022-07-18T02:59:44;2.83;;;1.10;;
40489;SDS011;26196;52.302;10.572;2022-07-18T03:03:45;1.40;;;0.60;;
40489;SDS011;26196;52.302;10.572;2022-07-18T03:07:46;1.73;;;0.57;;
40489;SDS011;26196;52.302;10.572;2022-07-18T03:11:47;1.35;;;0.50;;
40489;SDS011;26196;52.302;10.572;2022-07-18T03:15:47;1.40;;;0.63;;
40489;SDS011;26196;52.302;10.572;2022-07-18T03:19:47;1.15;;;0.50;;
40489;SDS011;26196;52.302;10.572;2022-07-18T03:23:48;3.03;;;0.70;;
40489;SDS011;26196;52.302;10.572;2022-07-18T03:27:49;0.88;;;0.82;;
40489;SDS011;26196;52.302;10.572;2022-07-18T03:31:49;1.15;;;0.40;;
40489;SDS011;26196;52.302;10.572;2022-07-18T03:35:50;2.05;;;0.85;;
40489;SDS011;26196;52.302;10.572;2022-07-18T03:39:50;1.60;;;0.80;;
40489;SDS011;26196;52.302;10.572;2022-07-18T03:43:51;2.40;;;0.88;;
40489;SDS011;26196;52.302;10.572;2022-07-18T03:47:51;1.08;;;0.57;;
40489;SDS011;26196;52.302;10.572;2022-07-18T03:51:52;0.73;;;0.52;;
40489;SDS011;26196;52.302;10.572;2022-07-18T03:55:55;1.40;;;0.40;;
40489;SDS011;26196;52.302;10.572;2022-07-18T03:59:55;0.93;;;0.40;;
40489;SDS011;26196;52.302;10.572;2022-07-18T04:03:56;1.15;;;0.70;;
40489;SDS011;26196;52.302;10.572;2022-07-18T04:07:56;2.10;;;0.70;;
40489;SDS011;26196;52.302;10.572;2022-07-18T04:11:57;0.90;;;0.50;;
40489;SDS011;26196;52.302;10.572;2022-07-18T04:15:57;1.73;;;0.60;;
40489;SDS011;26196;52.302;10.572;2022-07-18T04:19:58;1.00;;;0.70;;
40489;SDS011;26196;52.302;10.572;2022-07-18T04:23:58;2.00;;;0.63;;
40489;SDS011;26196;52.302;10.572;2022-07-18T04:27:59;1.23;;;0.70;;
40489;SDS011;26196;52.302;10.572;2022-07-18T04:31:59;1.30;;;0.70;;
40489;SDS011;26196;52.302;10.572;2022-07-18T04:36:00;3.40;;;0.68;;
40489;SDS011;26196;52.302;10.572;2022-07-18T04:40:00;1.85;;;0.90;;
40489;SDS011;26196;52.302;10.572;2022-07-18T04:44:01;1.30;;;0.75;;
40489;SDS011;26196;52.302;10.572;2022-07-18T04:48:05;1.35;;;0.63;;
40489;SDS011;26196;52.302;10.572;2022-07-18T04:52:06;2.08;;;0.77;;
40489;SDS011;26196;52.302;10.572;2022-07-18T04:56:07;1.38;;;0.70;;
40489;SDS011;26196;52.302;10.572;2022-07-18T05:00:08;3.08;;;0.60;;
40489;SDS011;26196;52.302;10.572;2022-07-18T05:04:14;1.95;;;0.70;;
40489;SDS011;26196;52.302;10.572;2022-07-18T05:08:14;2.58;;;1.02;;
40489;SDS011;26196;52.302;10.572;2022-07-18T05:12:15;10.55;;;1.83;;
40489;SDS011;26196;52.302;10.572;2022-07-18T05:16:15;20.77;;;3.63;;
40489;SDS011;26196;52.302;10.572;2022-07-18T05:20:16;24.75;;;4.65;;
40489;SDS011;26196;52.302;10.572;2022-07-18T05:24:18;21.55;;;5.93;;
40489;SDS011;26196;52.302;10.572;2022-07-18T05:28:19;23.23;;;4.65;;
40489;SDS011;26196;52.302;10.572;2022-07-18T05:32:19;28.05;;;7.20;;
40489;SDS011;26196;52.302;10.572;2022-07-18T05:36:20;18.08;;;5.03;;
40489;SDS011;26196;52.302;10.572;2022-07-18T05:40:20;23.05;;;4.90;;
40489;SDS011;26196;52.302;10.572;2022-07-18T05:44:21;20.38;;;4.05;;
40489;SDS011;26196;52.302;10.572;2022-07-18T05:48:21;17.67;;;3.95;;
40489;SDS011;26196;52.302;10.572;2022-07-18T05:52:21;19.15;;;4.15;;
40489;SDS011;26196;52.302;10.572;2022-07-18T05:56:22;17.65;;;4.72;;
40489;SDS011;26196;52.302;10.572;2022-07-18T06:00:22;17.50;;;3.50;;
40489;SDS011;26196;52.302;10.572;2022-07-18T06:04:23;14.18;;;3.65;;
40489;SDS011;26196;52.302;10.572;2022-07-18T06:08:23;9.38;;;3.28;;
40489;SDS011;26196;52.302;10.572;2022-07-18T06:12:24;12.35;;;3.60;;
40489;SDS011;26196;52.302;10.572;2022-07-18T06:16:29;9.65;;;2.78;;
40489;SDS011;26196;52.302;10.572;2022-07-18T06:20:30;12.40;;;3.28;;
40489;SDS011;26196;52.302;10.572;2022-07-18T06:24:30;10.93;;;2.55;;
40489;SDS011;26196;52.302;10.572;2022-07-18T06:28:31;9.65;;;2.55;;
40489;SDS011;26196;52.302;10.572;2022-07-18T06:32:31;6.60;;;2.20;;
40489;SDS011;26196;52.302;10.572;2022-07-18T06:36:32;10.02;;;2.42;;
40489;SDS011;26196;52.302;10.572;2022-07-18T06:40:33;7.38;;;2.35;;
40489;SDS011;26196;52.302;10.572;2022-07-18T06:44:33;7.07;;;2.38;;
40489;SDS011;26196;52.302;10.572;2022-07-18T06:48:33;6.60;;;2.05;;
40489;SDS011;26196;52.302;10.572;2022-07-18T06:52:36;10.98;;;2.10;;
40489;SDS011;26196;52.302;10.572;2022-07-18T06:56:38;7.63;;;2.72;;
40489;SDS011;26196;52.302;10.572;2022-07-18T07:00:39;6.60;;;1.90;;
40489;SDS011;26196;52.302;10.572;2022-07-18T07:04:39;6.43;;;2.13;;
40489;SDS011;26196;52.302;10.572;2022-07-18T07:08:40;6.22;;;1.85;;
40489;SDS011;26196;52.302;10.572;2022-07-18T07:12:41;8.50;;;2.20;;
40489;SDS011;26196;52.302;10.572;2022-07-18T07:16:42;6.72;;;1.80;;
40489;SDS011;26196;52.302;10.572;2022-07-18T07:20:43;7.15;;;2.30;;
40489;SDS011;26196;52.302;10.572;2022-07-18T07:24:44;6.20;;;2.38;;
40489;SDS011;26196;52.302;10.572;2022-07-18T07:28:44;6.45;;;1.83;;
40489;SDS011;26196;52.302;10.572;2022-07-18T07:32:46;5.07;;;2.10;;
40489;SDS011;26196;52.302;10.572;2022-07-18T07:36:47;6.05;;;2.10;;
40489;SDS011;26196;52.302;10.572;2022-07-18T07:40:48;7.20;;;2.45;;
40489;SDS011;26196;52.302;10.572;2022-07-18T07:44:48;4.25;;;1.77;;
40489;SDS011;26196;52.302;10.572;2022-07-18T07:48:49;7.13;;;2.17;;
40489;SDS011;26196;52.302;10.572;2022-07-18T07:52:49;7.18;;;2.17;;
40489;SDS011;26196;52.302;10.572;2022-07-18T07:56:50;6.53;;;2.08;;
40489;SDS011;26196;52.302;10.572;2022-07-18T08:00:50;9.57;;;3.03;;
40489;SDS011;26196;52.302;10.572;2022-07-18T08:04:51;9.00;;;2.20;;
40489;SDS011;26196;52.302;10.572;2022-07-18T08:08:51;6.32;;;2.05;;
40489;SDS011;26196;52.302;10.572;2022-07-18T08:12:52;4.95;;;2.35;;
40489;SDS011;26196;52.302;10.572;2022-07-18T08:16:52;6.28;;;1.80;;
40489;SDS011;26196;52.302;10.572;2022-07-18T08:20:53;8.30;;;2.85;;
40489;SDS011;26196;52.302;10.572;2022-07-18T08:24:54;7.70;;;3.00;;
40489;SDS011;26196;52.302;10.572;2022-07-18T08:28:54;6.95;;;1.73;;
40489;SDS011;26196;52.302;10.572;2022-07-18T08:32:54;5.30;;;1.63;;
40489;SDS011;26196;52.302;10.572;2022-07-18T08:36:55;4.90;;;1.70;;
40489;SDS011;26196;52.302;10.572;2022-07-18T08:40:56;5.10;;;2.28;;
40489;SDS011;26196;52.302;10.572;2022-07-18T08:44:58;10.88;;;2.55;;
40489;SDS011;26196;52.302;10.572;2022-07-18T08:48:58;5.88;;;2.70;;
40489;SDS011;26196;52.302;10.572;2022-07-18T08:52:59;4.38;;;1.15;;
40489;SDS011;26196;52.302;10.572;2022-07-18T08:57:00;4.15;;;1.42;;
40489;SDS011;26196;52.302;10.572;2022-07-18T09:01:01;6.43;;;1.73;;
40489;SDS011;26196;52.302;10.572;2022-07-18T09:05:02;2.90;;;1.20;;
40489;SDS011;26196;52.302;10.572;2022-07-18T09:09:04;4.07;;;1.10;;
40489;SDS011;26196;52.302;10.572;2022-07-18T09:13:05;5.40;;;1.27;;
40489;SDS011;26196;52.302;10.572;2022-07-18T09:21:21;7.70;;;1.85;;
40489;SDS011;26196;52.302;10.572;2022-07-18T09:25:23;3.73;;;1.60;;
40489;SDS011;26196;52.302;10.572;2022-07-18T09:29:25;5.35;;;1.30;;
40489;SDS011;26196;52.302;10.572;2022-07-18T09:33:25;3.20;;;1.95;;
40489;SDS011;26196;52.302;10.572;2022-07-18T09:37:25;4.15;;;1.33;;
40489;SDS011;26196;52.302;10.572;2022-07-18T09:41:29;3.60;;;1.30;;
40489;SDS011;26196;52.302;10.572;2022-07-18T09:49:32;5.30;;;1.30;;
40489;SDS011;26196;52.302;10.572;2022-07-18T09:53:41;4.82;;;1.25;;
40489;SDS011;26196;52.302;10.572;2022-07-18T09:57:42;5.93;;;1.48;;
40489;SDS011;26196;52.302;10.572;2022-07-18T10:01:43;3.28;;;1.15;;
40489;SDS011;26196;52.302;10.572;2022-07-18T10:05:45;4.63;;;1.70;;
40489;SDS011;26196;52.302;10.572;2022-07-18T10:09:47;3.15;;;1.15;;
40489;SDS011;26196;52.302;10.572;2022-07-18T10:13:48;5.68;;;1.20;;
40489;SDS011;26196;52.302;10.572;2022-07-18T10:17:50;5.25;;;1.50;;
40489;SDS011;26196;52.302;10.572;2022-07-18T10:21:51;1.27;;;0.88;;
40489;SDS011;26196;52.302;10.572;2022-07-18T10:26:13;4.40;;;1.05;;
40489;SDS011;26196;52.302;10.572;2022-07-18T10:30:15;2.05;;;0.90;;
40489;SDS011;26196;52.302;10.572;2022-07-18T10:34:16;2.42;;;1.23;;
40489;SDS011;26196;52.302;10.572;2022-07-18T10:38:26;3.80;;;0.85;;
40489;SDS011;26196;52.302;10.572;2022-07-18T10:42:27;3.10;;;1.08;;
40489;SDS011;26196;52.302;10.572;2022-07-18T10:51:10;2.85;;;1.20;;
40489;SDS011;26196;52.302;10.572;2022-07-18T10:59:21;1.70;;;0.70;;
40489;SDS011;26196;52.302;10.572;2022-07-18T11:03:26;2.03;;;1.17;;
40489;SDS011;26196;52.302;10.572;2022-07-18T11:07:28;4.07;;;1.15;;
40489;SDS011;26196;52.302;10.572;2022-07-18T11:11:28;2.22;;;1.10;;
40489;SDS011;26196;52.302;10.572;2022-07-18T11:15:30;3.22;;;1.60;;
40489;SDS011;26196;52.302;10.572;2022-07-18T11:20:25;1.98;;;1.05;;
40489;SDS011;26196;52.302;10.572;2022-07-18T11:24:36;3.75;;;1.38;;
40489;SDS011;26196;52.302;10.572;2022-07-18T11:28:37;2.40;;;1.50;;
40489;SDS011;26196;52.302;10.572;2022-07-18T11:32:39;2.35;;;0.90;;
40489;SDS011;26196;52.302;10.572;2022-07-18T11:36:45;2.67;;;1.27;;
40489;SDS011;26196;52.302;10.572;2022-07-18T11:40:51;1.80;;;1.20;;
40489;SDS011;26196;52.302;10.572;2022-07-18T11:44:58;2.80;;;1.40;;
40489;SDS011;26196;52.302;10.572;2022-07-18T11:49:00;2.30;;;1.15;;
40489;SDS011;26196;52.302;10.572;2022-07-18T11:53:04;1.75;;;1.10;;
40489;SDS011;26196;52.302;10.572;2022-07-18T11:57:05;2.67;;;1.38;;
40489;SDS011;26196;52.302;10.572;2022-07-18T12:01:05;2.35;;;1.20;;
40489;SDS011;26196;52.302;10.572;2022-07-18T12:05:06;2.55;;;1.20;;
40489;SDS011;26196;52.302;10.572;2022-07-18T12:09:07;1.90;;;1.20;;
40489;SDS011;26196;52.302;10.572;2022-07-18T12:13:08;2.38;;;1.40;;
40489;SDS011;26196;52.302;10.572;2022-07-18T12:17:08;1.95;;;1.50;;
40489;SDS011;26196;52.302;10.572;2022-07-18T12:21:09;2.67;;;1.40;;
40489;SDS011;26196;52.302;10.572;2022-07-18T12:25:09;2.22;;;1.20;;
40489;SDS011;26196;52.302;10.572;2022-07-18T12:29:10;1.98;;;1.20;;
40489;SDS011;26196;52.302;10.572;2022-07-18T12:33:10;2.45;;;1.30;;
40489;SDS011;26196;52.302;10.572;2022-07-18T12:37:11;2.30;;;1.38;;
40489;SDS011;26196;52.302;10.572;2022-07-18T12:41:11;2.22;;;1.27;;
40489;SDS011;26196;52.302;10.572;2022-07-18T12:45:12;1.90;;;1.35;;
40489;SDS011;26196;52.302;10.572;2022-07-18T12:49:14;1.95;;;1.27;;
40489;SDS011;26196;52.302;10.572;2022-07-18T12:53:14;2.28;;;1.08;;
40489;SDS011;26196;52.302;10.572;2022-07-18T12:57:15;2.15;;;1.30;;
40489;SDS011;26196;52.302;10.572;2022-07-18T13:01:16;2.42;;;1.38;;
40489;SDS011;26196;52.302;10.572;2022-07-18T13:05:16;1.58;;;0.98;;
40489;SDS011;26196;52.302;10.572;2022-07-18T13:09:17;3.13;;;1.33;;
40489;SDS011;26196;52.302;10.572;2022-07-18T13:13:17;2.25;;;1.23;;
40489;SDS011;26196;52.302;10.572;2022-07-18T13:17:18;2.72;;;1.20;;
40489;SDS011;26196;52.302;10.572;2022-07-18T13:21:19;2.97;;;1.20;;
40489;SDS011;26196;52.302;10.572;2022-07-18T13:25:20;3.47;;;1.05;;
40489;SDS011;26196;52.302;10.572;2022-07-18T13:29:22;1.60;;;0.95;;
40489;SDS011;26196;52.302;10.572;2022-07-18T13:33:23;1.38;;;1.00;;
40489;SDS011;26196;52.302;10.572;2022-07-18T13:37:23;1.27;;;0.95;;
40489;SDS011;26196;52.302;10.572;2022-07-18T13:41:24;2.50;;;1.20;;
40489;SDS011;26196;52.302;10.572;2022-07-18T13:45:25;1.88;;;0.95;;
40489;SDS011;26196;52.302;10.572;2022-07-18T13:49:26;2.53;;;1.05;;
40489;SDS011;26196;52.302;10.572;2022-07-18T13:53:27;2.10;;;1.20;;
40489;SDS011;26196;52.302;10.572;2022-07-18T13:57:28;2.17;;;1.17;;
40489;SDS011;26196;52.302;10.572;2022-07-18T14:01:29;4.88;;;1.55;;
40489;SDS011;26196;52.302;10.572;2022-07-18T14:05:30;1.88;;;0.98;;
40489;SDS011;26196;52.302;10.572;2022-07-18T14:09:30;1.75;;;0.95;;
40489;SDS011;26196;52.302;10.572;2022-07-18T14:13:31;1.23;;;0.90;;
40489;SDS011;26196;52.302;10.572;2022-07-18T14:17:31;1.58;;;0.80;;
40489;SDS011;26196;52.302;10.572;2022-07-18T14:21:33;1.85;;;0.80;;
40489;SDS011;26196;52.302;10.572;2022-07-18T14:25:34;3.22;;;0.95;;
40489;SDS011;26196;52.302;10.572;2022-07-18T14:29:34;1.05;;;0.80;;
40489;SDS011;26196;52.302;10.572;2022-07-18T14:33:36;3.63;;;0.82;;
40489;SDS011;26196;52.302;10.572;2022-07-18T14:37:37;2.10;;;0.95;;
40489;SDS011;26196;52.302;10.572;2022-07-18T14:41:38;1.27;;;0.70;;
40489;SDS011;26196;52.302;10.572;2022-07-18T14:45:38;1.08;;;0.68;;
40489;SDS011;26196;52.302;10.572;2022-07-18T14:49:39;5.75;;;1.20;;
40489;SDS011;26196;52.302;10.572;2022-07-18T14:53:39;1.40;;;0.65;;
40489;SDS011;26196;52.302;10.572;2022-07-18T14:57:40;1.50;;;0.90;;
40489;SDS011;26196;52.302;10.572;2022-07-18T15:01:40;1.30;;;0.75;;
40489;SDS011;26196;52.302;10.572;2022-07-18T15:05:41;1.65;;;0.80;;
40489;SDS011;26196;52.302;10.572;2022-07-18T15:09:42;2.60;;;0.93;;
40489;SDS011;26196;52.302;10.572;2022-07-18T15:13:43;1.75;;;0.70;;
40489;SDS011;26196;52.302;10.572;2022-07-18T15:17:43;1.60;;;1.10;;
40489;SDS011;26196;52.302;10.572;2022-07-18T15:21:44;1.45;;;0.82;;
40489;SDS011;26196;52.302;10.572;2022-07-18T15:25:45;1.67;;;1.08;;
40489;SDS011;26196;52.302;10.572;2022-07-18T15:29:47;2.83;;;1.80;;
40489;SDS011;26196;52.302;10.572;2022-07-18T15:33:48;1.20;;;0.77;;
40489;SDS011;26196;52.302;10.572;2022-07-18T15:37:53;2.35;;;1.00;;
40489;SDS011;26196;52.302;10.572;2022-07-18T15:41:54;1.80;;;0.80;;
40489;SDS011;26196;52.302;10.572;2022-07-18T15:45:54;3.13;;;0.98;;
40489;SDS011;26196;52.302;10.572;2022-07-18T15:49:55;2.78;;;0.98;;
40489;SDS011;26196;52.302;10.572;2022-07-18T15:53:55;3.20;;;1.30;;
40489;SDS011;26196;52.302;10.572;2022-07-18T15:57:56;2.50;;;0.90;;
40489;SDS011;26196;52.302;10.572;2022-07-18T16:01:57;3.05;;;1.02;;
40489;SDS011;26196;52.302;10.572;2022-07-18T16:05:57;5.80;;;1.15;;
40489;SDS011;26196;52.302;10.572;2022-07-18T16:09:58;1.17;;;0.90;;
40489;SDS011;26196;52.302;10.572;2022-07-18T16:13:59;1.80;;;1.00;;
40489;SDS011;26196;52.302;10.572;2022-07-18T16:17:59;1.45;;;1.17;;
40489;SDS011;26196;52.302;10.572;2022-07-18T16:22:00;1.83;;;0.90;;
40489;SDS011;26196;52.302;10.572;2022-07-18T16:26:00;2.05;;;1.10;;
40489;SDS011;26196;52.302;10.572;2022-07-18T16:30:02;3.40;;;1.10;;
40489;SDS011;26196;52.302;10.572;2022-07-18T16:34:04;2.10;;;1.52;;
40489;SDS011;26196;52.302;10.572;2022-07-18T16:38:04;2.17;;;1.02;;
40489;SDS011;26196;52.302;10.572;2022-07-18T16:42:05;2.55;;;1.10;;
40489;SDS011;26196;52.302;10.572;2022-07-18T16:46:06;3.60;;;1.30;;
40489;SDS011;26196;52.302;10.572;2022-07-18T16:50:07;2.20;;;1.10;;
40489;SDS011;26196;52.302;10.572;2022-07-18T16:54:09;2.45;;;1.02;;
40489;SDS011;26196;52.302;10.572;2022-07-18T16:58:09;4.35;;;1.10;;
40489;SDS011;26196;52.302;10.572;2022-07-18T17:02:10;1.25;;;1.00;;
40489;SDS011;26196;52.302;10.572;2022-07-18T17:06:11;2.90;;;1.20;;
40489;SDS011;26196;52.302;10.572;2022-07-18T17:10:14;2.50;;;1.02;;
40489;SDS011;26196;52.302;10.572;2022-07-18T17:14:15;3.35;;;0.90;;
40489;SDS011;26196;52.302;10.572;2022-07-18T17:18:17;1.52;;;1.25;;
40489;SDS011;26196;52.302;10.572;2022-07-18T17:22:18;2.55;;;1.02;;
40489;SDS011;26196;52.302;10.572;2022-07-18T17:26:20;2.55;;;1.20;;
40489;SDS011;26196;52.302;10.572;2022-07-18T17:30:21;3.58;;;1.10;;
40489;SDS011;26196;52.302;10.572;2022-07-18T17:34:22;4.28;;;1.30;;
40489;SDS011;26196;52.302;10.572;2022-07-18T17:38:22;2.13;;;1.15;;
40489;SDS011;26196;52.302;10.572;2022-07-18T17:42:25;2.58;;;1.00;;
40489;SDS011;26196;52.302;10.572;2022-07-18T17:46:26;3.65;;;1.08;;
40489;SDS011;26196;52.302;10.572;2022-07-18T17:50:30;3.55;;;1.48;;
40489;SDS011;26196;52.302;10.572;2022-07-18T17:54:30;3.45;;;0.90;;
40489;SDS011;26196;52.302;10.572;2022-07-18T17:58:31;1.30;;;0.80;;
40489;SDS011;26196;52.302;10.572;2022-07-18T18:02:31;2.72;;;1.58;;
40489;SDS011;26196;52.302;10.572;2022-07-18T18:06:32;1.55;;;1.10;;
40489;SDS011;26196;52.302;10.572;2022-07-18T18:10:33;2.03;;;1.25;;
40489;SDS011;26196;52.302;10.572;2022-07-18T18:14:33;2.58;;;1.00;;
40489;SDS011;26196;52.302;10.572;2022-07-18T18:18:34;5.78;;;1.25;;
40489;SDS011;26196;52.302;10.572;2022-07-18T18:22:35;1.20;;;1.00;;
40489;SDS011;26196;52.302;10.572;2022-07-18T18:26:36;2.15;;;1.00;;
40489;SDS011;26196;52.302;10.572;2022-07-18T18:30:36;2.55;;;1.10;;
40489;SDS011;26196;52.302;10.572;2022-07-18T18:34:40;2.70;;;1.13;;
40489;SDS011;26196;52.302;10.572;2022-07-18T18:38:41;1.40;;;1.05;;
40489;SDS011;26196;52.302;10.572;2022-07-18T18:42:41;3.40;;;0.90;;
40489;SDS011;26196;52.302;10.572;2022-07-18T18:46:42;2.00;;;1.02;;
40489;SDS011;26196;52.302;10.572;2022-07-18T18:50:43;2.22;;;1.15;;
40489;SDS011;26196;52.302;10.572;2022-07-18T18:54:44;1.40;;;0.80;;
40489;SDS011;26196;52.302;10.572;2022-07-18T18:58:45;2.13;;;1.13;;
40489;SDS011;26196;52.302;10.572;2022-07-18T19:02:47;2.05;;;1.17;;
40489;SDS011;26196;52.302;10.572;2022-07-18T19:06:49;1.88;;;1.23;;
40489;SDS011;26196;52.302;10.572;2022-07-18T19:10:50;2.30;;;1.10;;
40489;SDS011;26196;52.302;10.572;2022-07-18T19:14:50;1.98;;;1.10;;
40489;SDS011;26196;52.302;10.572;2022-07-18T19:18:52;1.88;;;1.48;;
40489;SDS011;26196;52.302;10.572;2022-07-18T19:22:53;3.13;;;1.63;;
40489;SDS011;26196;52.302;10.572;2022-07-18T19:26:56;4.35;;;1.83;;
40489;SDS011;26196;52.302;10.572;2022-07-18T19:30:56;3.42;;;1.45;;
40489;SDS011;26196;52.302;10.572;2022-07-18T19:34:57;2.70;;;1.25;;
40489;SDS011;26196;52.302;10.572;2022-07-18T19:38:58;2.70;;;1.52;;
40489;SDS011;26196;52.302;10.572;2022-07-18T19:42:58;4.00;;;1.25;;
40489;SDS011;26196;52.302;10.572;2022-07-18T19:46:58;4.32;;;1.58;;
40489;SDS011;26196;52.302;10.572;2022-07-18T19:50:59;5.10;;;1.77;;
40489;SDS011;26196;52.302;10.572;2022-07-18T19:54:59;4.38;;;1.52;;
40489;SDS011;26196;52.302;10.572;2022-07-18T19:59:00;12.73;;;1.60;;
40489;SDS011;26196;52.302;10.572;2022-07-18T20:03:00;14.32;;;2.40;;
40489;SDS011;26196;52.302;10.572;2022-07-18T20:07:01;5.93;;;2.30;;
40489;SDS011;26196;52.302;10.572;2022-07-18T20:11:02;12.13;;;1.85;;
40489;SDS011;26196;52.302;10.572;2022-07-18T20:15:03;15.35;;;1.90;;
40489;SDS011;26196;52.302;10.572;2022-07-18T20:19:05;10.60;;;1.85;;
40489;SDS011;26196;52.302;10.572;2022-07-18T20:23:05;12.05;;;2.35;;
40489;SDS011;26196;52.302;10.572;2022-07-18T20:27:06;5.90;;;1.90;;
40489;SDS011;26196;52.302;10.572;2022-07-18T20:31:07;9.70;;;3.10;;
40489;SDS011;26196;52.302;10.572;2022-07-18T20:35:10;6.63;;;1.88;;
40489;SDS011;26196;52.302;10.572;2022-07-18T20:39:13;8.52;;;2.95;;
40489;SDS011;26196;52.302;10.572;2022-07-18T20:43:13;9.65;;;2.15;;
40489;SDS011;26196;52.302;10.572;2022-07-18T20:47:14;4.45;;;1.90;;
40489;SDS011;26196;52.302;10.572;2022-07-18T20:51:15;4.63;;;2.00;;
40489;SDS011;26196;52.302;10.572;2022-07-18T20:55:15;5.30;;;1.90;;
40489;SDS011;26196;52.302;10.572;2022-07-18T20:59:16;5.30;;;1.95;;
40489;SDS011;26196;52.302;10.572;2022-07-18T21:03:16;4.97;;;2.00;;
40489;SDS011;26196;52.302;10.572;2022-07-18T21:07:17;8.05;;;2.30;;
40489;SDS011;26196;52.302;10.572;2022-07-18T21:11:17;6.07;;;2.25;;
40489;SDS011;26196;52.302;10.572;2022-07-18T21:15:18;5.90;;;1.95;;
40489;SDS011;26196;52.302;10.572;2022-07-18T21:19:18;6.68;;;2.45;;
40489;SDS011;26196;52.302;10.572;2022-07-18T21:23:19;6.15;;;1.50;;
40489;SDS011;26196;52.302;10.572;2022-07-18T21:27:21;3.72;;;1.80;;
40489;SDS011;26196;52.302;10.572;2022-07-18T21:31:22;3.67;;;1.60;;
40489;SDS011;26196;52.302;10.572;2022-07-18T21:35:22;4.18;;;2.13;;
40489;SDS011;26196;52.302;10.572;2022-07-18T21:39:23;8.75;;;2.10;;
40489;SDS011;26196;52.302;10.572;2022-07-18T21:43:23;4.05;;;1.55;;
40489;SDS011;26196;52.302;10.572;2022-07-18T21:47:24;3.45;;;1.75;;
40489;SDS011;26196;52.302;10.572;2022-07-18T21:51:25;6.55;;;1.55;;
40489;SDS011;26196;52.302;10.572;2022-07-18T21:55:26;3.67;;;1.45;;
40489;SDS011;26196;52.302;10.572;2022-07-18T21:59:26;5.72;;;1.88;;
40489;SDS011;26196;52.302;10.572;2022-07-18T22:03:26;4.25;;;1.63;;
40489;SDS011;26196;52.302;10.572;2022-07-18T22:07:27;4.55;;;1.52;;
40489;SDS011;26196;52.302;10.572;2022-07-18T22:11:27;5.10;;;1.63;;
40489;SDS011;26196;52.302;10.572;2022-07-18T22:15:29;3.63;;;2.20;;
40489;SDS011;26196;52.302;10.572;2022-07-18T22:19:30;6.22;;;1.73;;
40489;SDS011;26196;52.302;10.572;2022-07-18T22:23:31;3.05;;;1.73;;
40489;SDS011;26196;52.302;10.572;2022-07-18T22:27:32;3.65;;;2.03;;
40489;SDS011;26196;52.302;10.572;2022-07-18T22:31:33;4.10;;;1.55;;
40489;SDS011;26196;52.302;10.572;2022-07-18T22:35:33;5.80;;;1.65;;
40489;SDS011;26196;52.302;10.572;2022-07-18T22:39:36;2.65;;;1.60;;
40489;SDS011;26196;52.302;10.572;2022-07-18T22:43:36;6.22;;;1.60;;
40489;SDS011;26196;52.302;10.572;2022-07-18T22:47:37;2.92;;;1.58;;
40489;SDS011;26196;52.302;10.572;2022-07-18T22:51:37;4.18;;;1.50;;
40489;SDS011;26196;52.302;10.572;2022-07-18T22:55:38;5.63;;;2.28;;
40489;SDS011;26196;52.302;10.572;2022-07-18T22:59:38;3.55;;;2.17;;
40489;SDS011;26196;52.302;10.572;2022-07-18T23:03:39;3.45;;;1.80;;
40489;SDS011;26196;52.302;10.572;2022-07-18T23:07:39;2.67;;;1.30;;
40489;SDS011;26196;52.302;10.572;2022-07-18T23:11:39;2.28;;;1.42;;
40489;SDS011;26196;52.302;10.572;2022-07-18T23:15:41;4.80;;;1.77;;
40489;SDS011;26196;52.302;10.572;2022-07-18T23:19:43;2.53;;;1.50;;
40489;SDS011;26196;52.302;10.572;2022-07-18T23:23:48;2.53;;;1.55;;
40489;SDS011;26196;52.302;10.572;2022-07-18T23:27:48;3.03;;;1.52;;
40489;SDS011;26196;52.302;10.572;2022-07-18T23:31:49;4.53;;;1.65;;
40489;SDS011;26196;52.302;10.572;2022-07-18T23:35:49;3.55;;;1.40;;
40489;SDS011;26196;52.302;10.572;2022-07-18T23:39:50;3.20;;;1.70;;
40489;SDS011;26196;52.302;10.572;2022-07-18T23:43:50;3.50;;;1.92;;
40489;SDS011;26196;52.302;10.572;2022-07-18T23:47:50;4.45;;;2.10;;
40489;SDS011;26196;52.302;10.572;2022-07-18T23:51:51;6.05;;;1.73;;
40489;SDS011;26196;52.302;10.572;2022-07-18T23:55:52;3.78;;;2.10;;
40489;SDS011;26196;52.302;10.572;2022-07-18T23:59:53;4.53;;;1.50;;
